createdAt,value
2018-01-30T00:00:25.230Z,103089.70
2018-01-30T00:02:52.283Z,103095.64
2018-01-30T00:05:19.390Z,103096.89
2018-01-30T00:07:45.750Z,103101.88
2018-01-30T00:10:12.081Z,103115.66
2018-01-30T00:12:38.458Z,103119.35
2018-01-30T00:15:05.615Z,103122.41
2018-01-30T00:17:32.701Z,103123.42
2018-01-30T00:19:59.071Z,103129.16
2018-01-30T00:22:26.985Z,103127.96
2018-01-30T00:24:53.447Z,103127.63
2018-01-30T00:27:19.911Z,103124.91
2018-01-30T00:29:46.308Z,103126.88
2018-01-30T00:32:12.679Z,103122.97
2018-01-30T00:34:39.014Z,103122.30
2018-01-30T00:37:05.390Z,103120.56
2018-01-30T00:39:32.500Z,103121.44
2018-01-30T00:41:58.876Z,103120.19
2018-01-30T00:44:25.207Z,103124.56
2018-01-30T00:46:51.567Z,103115.44
2018-01-30T00:49:18.633Z,103113.81
2018-01-30T00:51:45.021Z,103110.25
2018-01-30T00:54:11.378Z,103113.91
2018-01-30T00:56:37.716Z,103113.91
2018-01-30T00:59:04.114Z,103108.69
2018-01-30T01:01:30.484Z,103107.02
2018-01-30T01:03:56.847Z,103100.03
2018-01-30T01:06:23.220Z,103111.05
2018-01-30T01:08:49.596Z,103100.06
2018-01-30T01:11:15.928Z,103093.15
2018-01-30T01:13:42.384Z,103079.15
2018-01-30T01:16:09.569Z,103081.42
2018-01-30T01:18:35.954Z,103087.66
2018-01-30T01:21:03.822Z,103080.61
2018-01-30T01:23:30.228Z,103084.13
2018-01-30T01:25:56.585Z,103090.87
2018-01-30T01:28:22.995Z,103094.45
2018-01-30T01:30:49.371Z,103096.70
2018-01-30T01:33:15.788Z,103106.80
2018-01-30T01:35:42.108Z,103099.34
2018-01-30T01:38:08.495Z,103104.00
2018-01-30T01:40:34.889Z,103098.41
2018-01-30T01:43:01.220Z,103104.95
2018-01-30T01:45:27.574Z,103107.63
2018-01-30T01:47:53.930Z,103096.59
2018-01-30T01:50:20.326Z,103110.70
2018-01-30T01:52:46.696Z,103111.71
2018-01-30T01:55:13.067Z,103120.55
2018-01-30T01:57:40.149Z,103121.50
2018-01-30T02:00:06.544Z,103123.86
2018-01-30T02:02:32.937Z,103125.56
2018-01-30T02:04:59.315Z,103123.48
2018-01-30T02:07:25.682Z,103122.98
2018-01-30T02:09:52.776Z,103130.97
2018-01-30T02:12:19.147Z,103129.74
2018-01-30T02:14:45.531Z,103132.95
2018-01-30T02:17:11.904Z,103137.77
2018-01-30T02:19:38.324Z,103125.56
2018-01-30T02:22:04.704Z,103112.88
2018-01-30T02:24:31.054Z,103112.84
2018-01-30T02:26:58.169Z,103108.86
2018-01-30T02:29:24.537Z,103119.08
2018-01-30T02:31:50.921Z,103118.77
2018-01-30T02:34:17.266Z,103114.36
2018-01-30T02:36:43.656Z,103109.04
2018-01-30T02:39:10.760Z,103114.04
2018-01-30T02:41:37.118Z,103115.80
2018-01-30T02:44:04.211Z,103121.64
2018-01-30T02:46:30.592Z,103133.16
2018-01-30T02:48:56.996Z,103127.38
2018-01-30T02:51:23.421Z,103130.11
2018-01-30T02:53:50.526Z,103142.43
2018-01-30T02:56:16.868Z,103148.59
2018-01-30T02:58:43.252Z,103146.83
2018-01-30T03:01:10.377Z,103146.83
2018-01-30T03:03:37.480Z,103139.13
2018-01-30T03:06:03.842Z,103139.13
2018-01-30T03:08:30.217Z,103137.74
2018-01-30T03:10:57.303Z,103148.86
2018-01-30T03:13:23.658Z,103150.78
2018-01-30T03:15:50.024Z,103140.72
2018-01-30T03:18:16.359Z,103141.94
2018-01-30T03:20:42.735Z,103140.59
2018-01-30T03:23:09.852Z,103138.92
2018-01-30T03:25:37.708Z,103139.84
2018-01-30T03:28:04.071Z,103140.75
2018-01-30T03:30:30.441Z,103130.30
2018-01-30T03:32:56.808Z,103124.99
2018-01-30T03:35:23.148Z,103130.36
2018-01-30T03:37:49.531Z,103130.89
2018-01-30T03:40:16.658Z,103123.35
2018-01-30T03:42:42.977Z,103116.27
2018-01-30T03:45:09.296Z,103115.02
2018-01-30T03:47:35.675Z,103110.67
2018-01-30T03:50:02.063Z,103111.50
2018-01-30T03:52:28.419Z,103116.58
2018-01-30T03:54:54.795Z,103123.97
2018-01-30T03:57:21.160Z,103134.21
2018-01-30T03:59:47.536Z,103130.31
2018-01-30T04:02:13.912Z,103136.56
2018-01-30T04:04:40.279Z,103137.41
2018-01-30T04:07:06.629Z,103129.42
2018-01-30T04:09:33.007Z,103112.98
2018-01-30T04:11:59.383Z,103107.98
2018-01-30T04:14:25.747Z,103106.64
2018-01-30T04:16:52.116Z,103105.34
2018-01-30T04:19:18.480Z,103075.89
2018-01-30T04:21:45.581Z,103079.38
2018-01-30T04:24:11.983Z,103084.31
2018-01-30T04:26:39.097Z,103088.74
2018-01-30T04:29:05.491Z,103090.09
2018-01-30T04:31:31.880Z,103095.81
2018-01-30T04:33:58.994Z,103083.11
2018-01-30T04:36:25.383Z,103095.84
2018-01-30T04:38:51.761Z,103095.81
2018-01-30T04:41:18.161Z,103099.77
2018-01-30T04:43:45.266Z,103115.79
2018-01-30T04:46:11.641Z,103134.45
2018-01-30T04:48:38.027Z,103122.94
2018-01-30T04:51:04.377Z,103104.97
2018-01-30T04:53:30.758Z,103096.20
2018-01-30T04:55:57.079Z,103085.58
2018-01-30T04:58:24.198Z,103101.53
2018-01-30T05:00:50.560Z,103104.17
2018-01-30T05:03:16.920Z,103113.39
2018-01-30T05:05:43.303Z,103124.47
2018-01-30T05:08:09.677Z,103136.26
2018-01-30T05:10:36.092Z,103129.20
2018-01-30T05:13:02.480Z,103117.58
2018-01-30T05:15:29.599Z,103122.98
2018-01-30T05:17:55.975Z,103121.21
2018-01-30T05:20:23.125Z,103111.59
2018-01-30T05:22:49.439Z,103095.91
2018-01-30T05:25:15.877Z,103091.17
2018-01-30T05:27:42.274Z,103094.33
2018-01-30T05:30:08.638Z,103094.36
2018-01-30T05:32:35.015Z,103088.92
2018-01-30T05:35:02.119Z,103090.93
2018-01-30T05:37:28.483Z,103096.89
2018-01-30T05:39:55.816Z,103101.03
2018-01-30T05:42:22.152Z,103093.80
2018-01-30T05:44:48.532Z,103100.41
2018-01-30T05:47:15.608Z,103104.20
2018-01-30T05:49:41.985Z,103097.89
2018-01-30T05:52:08.371Z,103101.69
2018-01-30T05:54:35.442Z,103116.58
2018-01-30T05:57:01.888Z,103107.74
2018-01-30T05:59:28.313Z,103095.02
2018-01-30T06:01:54.747Z,103107.20
2018-01-30T06:04:21.102Z,103117.03
2018-01-30T06:06:47.488Z,103104.45
2018-01-30T06:09:13.890Z,103106.38
2018-01-30T06:11:40.354Z,103118.11
2018-01-30T06:14:06.732Z,103113.46
2018-01-30T06:16:33.865Z,103106.42
2018-01-30T06:19:00.271Z,103112.39
2018-01-30T06:21:26.655Z,103107.86
2018-01-30T06:23:53.773Z,103112.83
2018-01-30T06:26:20.111Z,103113.71
2018-01-30T06:28:46.487Z,103115.22
2018-01-30T06:31:13.618Z,103111.89
2018-01-30T06:33:39.975Z,103119.77
2018-01-30T06:36:07.074Z,103118.45
2018-01-30T06:38:33.431Z,103103.91
2018-01-30T06:40:59.845Z,103115.00
2018-01-30T06:43:26.224Z,103117.34
2018-01-30T06:45:52.588Z,103109.94
2018-01-30T06:48:19.749Z,103113.85
2018-01-30T06:50:46.152Z,103114.83
2018-01-30T06:53:12.576Z,103115.77
2018-01-30T06:55:38.943Z,103102.94
2018-01-30T06:58:06.035Z,103102.53
2018-01-30T07:00:32.412Z,103111.84
2018-01-30T07:02:58.744Z,103105.73
2018-01-30T07:05:25.147Z,103111.73
2018-01-30T07:07:51.530Z,103105.19
2018-01-30T07:10:17.952Z,103099.23
2018-01-30T07:12:44.959Z,103099.30
2018-01-30T07:15:11.301Z,103105.59
2018-01-30T07:17:37.658Z,103116.45
2018-01-30T07:20:04.084Z,103112.75
2018-01-30T07:22:30.468Z,103107.98
2018-01-30T07:24:56.851Z,103106.88
2018-01-30T07:27:23.275Z,103103.68
2018-01-30T07:29:50.351Z,103104.89
2018-01-30T07:32:16.745Z,103117.65
2018-01-30T07:34:43.115Z,103109.61
2018-01-30T07:37:09.486Z,103117.20
2018-01-30T07:39:35.872Z,103115.78
2018-01-30T07:42:03.005Z,103116.97
2018-01-30T07:44:29.384Z,103113.20
2018-01-30T07:46:55.736Z,103116.88
2018-01-30T07:49:22.057Z,103114.09
2018-01-30T07:51:48.390Z,103113.86
2018-01-30T07:54:14.764Z,103106.70
2018-01-30T07:56:41.123Z,103112.62
2018-01-30T07:59:07.473Z,103111.37
2018-01-30T08:01:34.553Z,103106.72
2018-01-30T08:04:00.956Z,103109.94
2018-01-30T08:06:27.280Z,103105.36
2018-01-30T08:08:55.147Z,103108.58
2018-01-30T08:11:21.534Z,103102.16
2018-01-30T08:13:47.848Z,103107.14
2018-01-30T08:16:14.939Z,103105.03
2018-01-30T08:18:41.301Z,103100.97
2018-01-30T08:21:07.682Z,103097.30
2018-01-30T08:23:34.764Z,103109.66
2018-01-30T08:26:01.162Z,103102.68
2018-01-30T08:28:28.251Z,103108.97
2018-01-30T08:30:54.611Z,103110.90
2018-01-30T08:33:20.956Z,103109.98
2018-01-30T08:35:47.293Z,103118.77
2018-01-30T08:38:13.649Z,103121.53
2018-01-30T08:40:40.012Z,103124.20
2018-01-30T08:43:07.096Z,103125.59
2018-01-30T08:45:33.483Z,103124.55
2018-01-30T08:47:59.835Z,103121.50
2018-01-30T08:50:26.913Z,103117.57
2018-01-30T08:52:53.284Z,103118.45
2018-01-30T08:55:19.643Z,103117.66
2018-01-30T08:57:45.983Z,103118.52
2018-01-30T09:00:12.326Z,103123.86
2018-01-30T09:02:38.671Z,103115.14
2018-01-30T09:05:05.787Z,103116.94
2018-01-30T09:07:32.124Z,103119.20
2018-01-30T09:09:58.504Z,103118.27
2018-01-30T09:12:25.591Z,103122.26
2018-01-30T09:14:51.967Z,103123.14
2018-01-30T09:17:18.365Z,103128.02
2018-01-30T09:19:44.724Z,103126.28
2018-01-30T09:22:11.085Z,103113.13
2018-01-30T09:24:44.499Z,103119.23
2018-01-30T09:27:11.631Z,103118.36
2018-01-30T09:29:38.072Z,103113.35
2018-01-30T09:32:04.408Z,103114.73
2018-01-30T09:34:31.511Z,103117.66
2018-01-30T09:36:57.905Z,103119.27
2018-01-30T09:39:24.258Z,103113.54
2018-01-30T09:41:51.368Z,103113.23
2018-01-30T09:44:17.748Z,103118.52
2018-01-30T09:46:44.875Z,103118.48
2018-01-30T09:49:11.219Z,103118.03
2018-01-30T09:51:37.668Z,103108.56
2018-01-30T09:54:04.781Z,103105.35
2018-01-30T09:56:31.140Z,103112.03
2018-01-30T09:58:57.503Z,103109.35
2018-01-30T10:01:24.648Z,103105.39
2018-01-30T10:03:51.041Z,103103.09
2018-01-30T10:06:17.415Z,103100.89
2018-01-30T10:08:43.796Z,103099.94
2018-01-30T10:11:10.144Z,103095.44
2018-01-30T10:13:36.597Z,103091.84
2018-01-30T10:16:02.990Z,103088.42
2018-01-30T10:18:30.147Z,103082.94
2018-01-30T10:20:57.228Z,103084.23
2018-01-30T10:23:23.595Z,103087.66
2018-01-30T10:25:49.964Z,103090.30
2018-01-30T10:28:17.057Z,103091.21
2018-01-30T10:30:43.396Z,103099.55
2018-01-30T10:33:09.751Z,103096.81
2018-01-30T10:35:36.103Z,103083.96
2018-01-30T10:38:02.531Z,103094.53
2018-01-30T10:40:28.871Z,103097.31
2018-01-30T10:42:55.239Z,103094.27
2018-01-30T10:45:22.336Z,103096.47
2018-01-30T10:47:48.681Z,103090.43
2018-01-30T10:50:15.038Z,103087.84
2018-01-30T10:52:41.412Z,103092.66
2018-01-30T10:55:08.488Z,103094.02
2018-01-30T10:57:34.827Z,103090.59
2018-01-30T11:00:01.225Z,103081.81
2018-01-30T11:02:27.599Z,103093.70
2018-01-30T11:04:53.939Z,103096.08
2018-01-30T11:07:20.311Z,103093.77
2018-01-30T11:09:46.653Z,103091.06
2018-01-30T11:12:12.992Z,103087.95
2018-01-30T11:14:39.340Z,103091.20
2018-01-30T11:17:05.715Z,103088.52
2018-01-30T11:19:32.799Z,103080.09
2018-01-30T11:21:59.148Z,103084.45
2018-01-30T11:24:25.495Z,103086.25
2018-01-30T11:26:51.827Z,103081.44
2018-01-30T11:29:18.182Z,103082.69
2018-01-30T11:31:44.541Z,103074.66
2018-01-30T11:34:11.632Z,103073.28
2018-01-30T11:36:37.984Z,103066.23
2018-01-30T11:39:04.369Z,103061.89
2018-01-30T11:41:30.695Z,103064.27
2018-01-30T11:43:57.796Z,103065.66
2018-01-30T11:46:24.133Z,103058.13
2018-01-30T11:48:50.484Z,103063.29
2018-01-30T11:51:16.803Z,103050.64
2018-01-30T11:53:43.163Z,103049.32
2018-01-30T11:56:09.501Z,103055.29
2018-01-30T11:58:35.839Z,103048.23
2018-01-30T12:01:02.268Z,103041.66
2018-01-30T12:03:28.634Z,103039.02
2018-01-30T12:05:55.715Z,103023.50
2018-01-30T12:08:22.095Z,103024.52
2018-01-30T12:10:48.457Z,103018.08
2018-01-30T12:13:14.816Z,103017.23
2018-01-30T12:15:41.908Z,103007.84
2018-01-30T12:18:08.243Z,102998.59
2018-01-30T12:20:34.602Z,102998.11
2018-01-30T12:23:00.934Z,102989.30
2018-01-30T12:25:27.279Z,102989.27
2018-01-30T12:27:53.635Z,102976.52
2018-01-30T12:30:20.744Z,102978.52
2018-01-30T12:32:47.088Z,102974.11
2018-01-30T12:35:13.455Z,102969.70
2018-01-30T12:37:39.782Z,102972.21
2018-01-30T12:40:06.136Z,102959.98
2018-01-30T12:42:33.224Z,102965.64
2018-01-30T12:44:59.572Z,102954.14
2018-01-30T12:47:25.938Z,102960.38
2018-01-30T12:49:52.289Z,102955.64
2018-01-30T12:52:18.656Z,102952.59
2018-01-30T12:54:45.020Z,102948.25
2018-01-30T12:57:11.380Z,102943.95
2018-01-30T12:59:37.722Z,102935.52
2018-01-30T13:02:04.087Z,102929.41
2018-01-30T13:04:31.182Z,102928.53
2018-01-30T13:06:57.533Z,102926.40
2018-01-30T13:09:23.904Z,102924.53
2018-01-30T13:11:50.243Z,102922.44
2018-01-30T13:14:17.344Z,102919.79
2018-01-30T13:16:43.720Z,102903.05
2018-01-30T13:19:10.820Z,102905.08
2018-01-30T13:21:37.226Z,102898.02
2018-01-30T13:24:04.347Z,102900.67
2018-01-30T13:26:30.722Z,102906.09
2018-01-30T13:28:57.803Z,102903.31
2018-01-30T13:31:24.161Z,102895.89
2018-01-30T13:33:50.499Z,102888.58
2018-01-30T13:36:16.868Z,102889.46
2018-01-30T13:38:43.257Z,102892.91
2018-01-30T13:41:09.655Z,102886.78
2018-01-30T13:43:35.998Z,102883.14
2018-01-30T13:46:03.129Z,102878.70
2018-01-30T13:48:29.479Z,102876.63
2018-01-30T13:50:55.829Z,102873.98
2018-01-30T13:53:22.938Z,102871.86
2018-01-30T13:55:49.279Z,102869.69
2018-01-30T13:58:15.643Z,102867.53
2018-01-30T14:00:41.987Z,102861.13
2018-01-30T14:03:09.093Z,102857.71
2018-01-30T14:05:35.424Z,102849.85
2018-01-30T14:08:01.757Z,102842.00
2018-01-30T14:10:28.130Z,102838.17
2018-01-30T14:12:54.471Z,102845.39
2018-01-30T14:15:20.811Z,102836.18
2018-01-30T14:17:47.163Z,102840.69
2018-01-30T14:20:14.248Z,102834.52
2018-01-30T14:22:40.644Z,102835.00
2018-01-30T14:25:07.026Z,102829.86
2018-01-30T14:27:33.371Z,102833.86
2018-01-30T14:29:59.720Z,102836.16
2018-01-30T14:32:26.076Z,102833.15
2018-01-30T14:34:52.431Z,102831.09
2018-01-30T14:37:18.812Z,102825.47
2018-01-30T14:39:45.141Z,102824.15
2018-01-30T14:42:11.483Z,102817.61
2018-01-30T14:44:37.859Z,102817.14
2018-01-30T14:47:04.190Z,102823.55
2018-01-30T14:49:30.577Z,102822.96
2018-01-30T14:51:57.672Z,102822.16
2018-01-30T14:54:24.103Z,102810.53
2018-01-30T14:56:50.438Z,102803.25
2018-01-30T14:59:16.815Z,102810.11
2018-01-30T15:01:43.172Z,102807.44
2018-01-30T15:04:10.284Z,102808.07
2018-01-30T15:06:36.652Z,102799.67
2018-01-30T15:09:03.817Z,102800.41
2018-01-30T15:11:30.905Z,102787.78
2018-01-30T15:13:57.272Z,102782.02
2018-01-30T15:16:23.639Z,102782.56
2018-01-30T15:18:50.815Z,102786.64
2018-01-30T15:21:17.169Z,102776.69
2018-01-30T15:23:43.528Z,102763.84
2018-01-30T15:26:09.910Z,102760.88
2018-01-30T15:28:37.063Z,102758.79
2018-01-30T15:31:04.135Z,102752.89
2018-01-30T15:33:30.504Z,102739.42
2018-01-30T15:35:56.872Z,102740.67
2018-01-30T15:38:23.282Z,102739.02
2018-01-30T15:40:49.644Z,102736.30
2018-01-30T15:43:16.060Z,102735.81
2018-01-30T15:45:42.415Z,102727.02
2018-01-30T15:48:08.801Z,102724.94
2018-01-30T15:50:35.204Z,102718.55
2018-01-30T15:53:01.568Z,102713.73
2018-01-30T15:55:27.959Z,102702.53
2018-01-30T15:57:54.360Z,102697.59
2018-01-30T16:00:20.743Z,102700.17
2018-01-30T16:02:47.093Z,102688.34
2018-01-30T16:05:14.231Z,102688.47
2018-01-30T16:07:40.612Z,102670.73
2018-01-30T16:10:07.019Z,102667.84
2018-01-30T16:12:34.167Z,102658.53
2018-01-30T16:15:00.549Z,102656.31
2018-01-30T16:17:26.983Z,102653.98
2018-01-30T16:19:53.357Z,102648.06
2018-01-30T16:22:19.713Z,102643.99
2018-01-30T16:24:46.859Z,102630.09
2018-01-30T16:27:13.288Z,102625.20
2018-01-30T16:29:39.701Z,102627.13
2018-01-30T16:32:06.089Z,102625.91
2018-01-30T16:34:32.472Z,102615.47
2018-01-30T16:36:58.898Z,102611.19
2018-01-30T16:39:25.261Z,102606.46
2018-01-30T16:41:51.669Z,102600.20
2018-01-30T16:44:18.052Z,102595.30
2018-01-30T16:52:19.742Z,102587.60
2018-01-30T16:54:46.102Z,102589.47
2018-01-30T16:57:13.192Z,102580.22
2018-01-30T16:59:39.575Z,102579.66
2018-01-30T17:02:05.930Z,102573.90
2018-01-30T17:04:33.013Z,102569.52
2018-01-30T17:06:59.390Z,102571.00
2018-01-30T17:09:25.742Z,102564.36
2018-01-30T17:11:52.889Z,102564.25
2018-01-30T17:14:19.256Z,102551.19
2018-01-30T17:16:46.346Z,102551.06
2018-01-30T17:19:12.723Z,102543.73
2018-01-30T17:21:39.115Z,102548.13
2018-01-30T17:24:05.486Z,102544.14
2018-01-30T17:26:31.835Z,102538.59
2018-01-30T17:28:58.268Z,102533.62
2018-01-30T17:31:24.689Z,102533.06
2018-01-30T17:33:51.085Z,102531.34
2018-01-30T17:36:18.155Z,102527.52
2018-01-30T17:38:44.537Z,102522.37
2018-01-30T17:41:10.944Z,102522.33
2018-01-30T17:43:37.299Z,102515.34
2018-01-30T17:46:03.749Z,102525.98
2018-01-30T17:48:30.181Z,102521.90
2018-01-30T17:50:56.608Z,102517.95
2018-01-30T17:53:23.065Z,102510.12
2018-01-30T17:55:49.461Z,102510.17
2018-01-30T17:58:15.807Z,102503.25
2018-01-30T18:00:42.256Z,102502.34
2018-01-30T18:03:08.621Z,102499.20
2018-01-30T18:05:34.982Z,102496.25
2018-01-30T18:08:02.112Z,102494.48
2018-01-30T18:10:28.465Z,102499.39
2018-01-30T18:12:54.831Z,102482.62
2018-01-30T18:15:21.303Z,102479.51
2018-01-30T18:17:47.641Z,102480.73
2018-01-30T18:20:14.015Z,102481.59
2018-01-30T18:22:40.433Z,102481.88
2018-01-30T18:25:06.784Z,102479.77
2018-01-30T18:27:33.140Z,102472.20
2018-01-30T18:30:00.249Z,102465.45
2018-01-30T18:32:26.677Z,102463.11
2018-01-30T18:34:53.020Z,102468.95
2018-01-30T18:37:19.443Z,102456.93
2018-01-30T18:39:45.847Z,102447.06
2018-01-30T18:42:12.934Z,102440.92
2018-01-30T18:44:39.336Z,102441.25
2018-01-30T18:47:06.441Z,102435.58
2018-01-30T18:49:32.791Z,102429.06
2018-01-30T18:54:56.304Z,102412.67
2018-01-30T18:57:31.302Z,102402.18
2018-01-30T18:59:57.690Z,102396.89
2018-01-30T19:02:24.036Z,102403.27
2018-01-30T19:04:50.417Z,102400.73
2018-01-30T19:07:16.827Z,102397.79
2018-01-30T19:09:43.193Z,102387.69
2018-01-30T19:12:09.588Z,102390.95
2018-01-30T19:14:35.929Z,102389.63
2018-01-30T19:17:02.284Z,102388.67
2018-01-30T19:19:28.640Z,102385.19
2018-01-30T19:21:55.029Z,102389.89
2018-01-30T19:24:21.395Z,102384.84
2018-01-30T19:26:47.777Z,102388.73
2018-01-30T19:29:14.943Z,102394.78
2018-01-30T19:31:42.023Z,102393.25
2018-01-30T19:34:08.364Z,102393.45
2018-01-30T19:36:34.816Z,102381.94
2018-01-30T19:39:01.180Z,102377.83
2018-01-30T19:41:27.519Z,102371.62
2018-01-30T19:43:53.882Z,102368.52
2018-01-30T19:46:21.122Z,102367.52
2018-01-30T19:48:48.215Z,102355.55
2018-01-30T19:51:14.587Z,102350.17
2018-01-30T19:53:40.964Z,102342.59
2018-01-30T19:56:08.060Z,102335.66
2018-01-30T19:58:34.462Z,102331.96
2018-01-30T20:01:01.533Z,102320.71
2018-01-30T20:03:27.900Z,102320.82
2018-01-30T20:05:54.916Z,102314.39
2018-01-30T20:08:21.265Z,102304.95
2018-01-30T20:10:47.603Z,102303.62
2018-01-30T20:13:13.956Z,102293.80
2018-01-30T20:15:40.291Z,102285.59
2018-01-30T20:18:06.689Z,102277.64
2018-01-30T20:20:33.796Z,102271.87
2018-01-30T20:23:00.151Z,102271.16
2018-01-30T20:25:26.508Z,102263.17
2018-01-30T20:27:53.643Z,102253.03
2018-01-30T20:30:19.986Z,102232.45
2018-01-30T20:32:47.133Z,102220.27
2018-01-30T20:35:13.537Z,102227.98
2018-01-30T20:37:39.983Z,102214.08
2018-01-30T20:42:41.492Z,102219.80
2018-01-30T20:45:07.844Z,102219.70
2018-01-30T20:47:34.934Z,102212.16
2018-01-30T20:50:01.291Z,102201.88
2018-01-30T20:52:27.699Z,102197.40
2018-01-30T20:54:54.044Z,102188.37
2018-01-30T20:57:20.436Z,102178.69
2018-01-30T20:59:47.535Z,102173.27
2018-01-30T21:02:13.907Z,102165.83
2018-01-30T21:04:40.271Z,102163.66
2018-01-30T21:07:07.358Z,102153.22
2018-01-30T21:09:33.741Z,102142.53
2018-01-30T21:12:00.084Z,102138.98
2018-01-30T21:14:27.180Z,102138.44
2018-01-30T21:16:53.563Z,102126.34
2018-01-30T21:19:19.903Z,102125.16
2018-01-30T21:21:46.315Z,102124.87
2018-01-30T21:24:12.720Z,102108.56
2018-01-30T21:26:39.097Z,102106.73
2018-01-30T21:29:05.441Z,102098.06
2018-01-30T21:31:31.844Z,102107.52
2018-01-30T21:33:58.176Z,102106.81
2018-01-30T21:36:24.548Z,102113.59
2018-01-30T21:38:50.939Z,102102.30
2018-01-30T21:41:17.308Z,102092.73
2018-01-30T21:43:43.641Z,102088.09
2018-01-30T21:46:10.036Z,102077.25
2018-01-30T21:48:37.136Z,102072.87
2018-01-30T21:51:03.535Z,102061.70
2018-01-30T21:53:30.627Z,102062.79
2018-01-30T21:55:56.993Z,102058.84
2018-01-30T21:58:24.825Z,102048.14
2018-01-30T22:00:51.205Z,102035.86
2018-01-30T22:03:17.557Z,102027.45
2018-01-30T22:05:44.680Z,102017.98
2018-01-30T22:08:11.086Z,102009.90
2018-01-30T22:10:37.496Z,102003.58
2018-01-30T22:13:04.571Z,101992.45
2018-01-30T22:15:30.919Z,101992.65
2018-01-30T22:17:57.295Z,101995.98
2018-01-30T22:20:23.631Z,101989.52
2018-01-30T22:22:49.967Z,101984.97
2018-01-30T22:25:16.323Z,101984.45
2018-01-30T22:27:43.412Z,101981.14
2018-01-30T22:30:09.763Z,101970.52
2018-01-30T22:32:36.193Z,101973.81
2018-01-30T22:35:02.594Z,101970.41
2018-01-30T22:37:29.660Z,101959.23
2018-01-30T22:39:56.063Z,101951.16
2018-01-30T22:42:22.410Z,101942.59
2018-01-30T22:44:48.800Z,101935.50
